Time;durP1;ratioP1;P1;durP2;ratioP2;P2;SDS_P1;SDS_P2;PMS_P1;PMS_P2;Temp;Humidity;BMP_temperature;BMP_pressure;BME280_temperature;BME280_humidity;BME280_pressure;Samples;Min_cycle;Max_cycle;Signal;HPM_P1;HPM_P2
2022/05/27 00:02:07;;;;;;;17.80;10.70;;;;;;;15.14;87.36;100488.03;5121215;28;20509;-61
2022/05/27 00:04:33;;;;;;;13.97;11.10;;;;;;;15.12;87.56;100495.44;5123019;28;20449;-63
2022/05/27 00:07:00;;;;;;;16.20;10.93;;;;;;;14.98;88.06;100480.75;5120682;27;20481;-61
2022/05/27 00:09:27;;;;;;;12.63;10.50;;;;;;;14.88;88.30;100470.13;5121376;28;20501;-61
2022/05/27 00:11:53;;;;;;;12.57;10.70;;;;;;;14.96;87.53;100477.38;5115426;28;20463;-61
2022/05/27 00:14:20;;;;;;;14.73;10.73;;;;;;;14.82;88.72;100475.31;5123161;28;20450;-60
2022/05/27 00:16:48;;;;;;;14.80;10.47;;;;;;;14.78;88.84;100482.88;5122430;28;20497;-60
2022/05/27 00:19:16;;;;;;;12.73;11.30;;;;;;;14.83;88.85;100474.31;5122042;28;20481;-60
2022/05/27 00:21:43;;;;;;;13.80;10.90;;;;;;;14.73;89.65;100474.44;5104026;28;21009;-60
2022/05/27 00:24:09;;;;;;;13.97;11.03;;;;;;;14.85;89.72;100466.91;5114192;28;20447;-60
2022/05/27 00:26:36;;;;;;;14.00;11.20;;;;;;;14.75;89.36;100466.22;5122478;28;20473;-61
2022/05/27 00:29:03;;;;;;;18.43;12.57;;;;;;;14.80;89.42;100448.56;5123106;28;20473;-60
2022/05/27 00:31:30;;;;;;;21.00;11.47;;;;;;;14.71;89.93;100456.78;5101257;28;20526;-60
2022/05/27 00:33:58;;;;;;;12.83;11.53;;;;;;;14.71;89.81;100449.53;5122487;28;20450;-60
2022/05/27 00:36:24;;;;;;;11.73;10.63;;;;;;;14.61;89.48;100446.97;5117179;28;20462;-60
2022/05/27 00:38:51;;;;;;;16.93;12.07;;;;;;;14.61;89.66;100446.13;5104680;28;20761;-61
2022/05/27 00:41:18;;;;;;;14.30;11.27;;;;;;;14.76;89.28;100454.44;5120630;27;20527;-61
2022/05/27 00:43:45;;;;;;;18.23;12.40;;;;;;;14.79;89.00;100446.03;3916690;27;22517;-62
2022/05/27 00:46:16;;;;;;;13.70;11.13;;;;;;;14.86;88.65;100447.91;3804943;27;22550;-62
2022/05/27 00:48:45;;;;;;;11.87;10.67;;;;;;;14.74;88.70;100445.66;3771411;27;21529;-62
2022/05/27 00:51:16;;;;;;;11.77;10.50;;;;;;;14.82;88.90;100448.41;3789508;27;22591;-62
2022/05/27 00:53:47;;;;;;;13.57;10.03;;;;;;;14.65;88.87;100440.28;4933563;27;20954;-61
2022/05/27 00:56:15;;;;;;;12.87;11.47;;;;;;;14.73;88.97;100435.94;5112883;28;20474;-61
2022/05/27 00:58:44;;;;;;;12.10;10.80;;;;;;;14.53;89.02;100449.63;5104655;28;20486;-61
2022/05/27 01:01:11;;;;;;;12.30;10.87;;;;;;;14.48;89.31;100442.03;5085126;28;20985;-61
2022/05/27 01:03:38;;;;;;;11.63;10.43;;;;;;;14.34;89.98;100442.63;5101800;28;20443;-61
2022/05/27 01:06:05;;;;;;;13.07;11.10;;;;;;;14.37;90.71;100436.06;5108777;28;20479;-61
2022/05/27 01:08:33;;;;;;;14.33;11.53;;;;;;;14.19;90.71;100428.09;5107436;28;20446;-61
2022/05/27 01:11:09;;;;;;;10.83;9.83;;;;;;;14.36;90.70;100431.72;5119246;28;20509;-61
2022/05/27 01:13:43;;;;;;;12.60;11.30;;;;;;;14.21;90.72;100434.97;5118556;28;20458;-61
2022/05/27 01:16:16;;;;;;;17.67;11.03;;;;;;;14.23;91.12;100435.66;5103242;28;20477;-61
2022/05/27 01:21:53;;;;;;;11.97;10.80;;;;;;;14.05;92.08;100418.78;5090844;28;20486;-61
2022/05/27 01:24:59;;;;;;;16.27;12.73;;;;;;;14.10;91.65;100424.53;5101202;28;20447;-61
2022/05/27 01:28:05;;;;;;;15.10;13.60;;;;;;;14.19;91.30;100425.41;5096055;28;20502;-61
2022/05/27 01:30:35;;;;;;;13.37;11.97;;;;;;;14.15;90.95;100421.34;5058189;28;20469;-61
2022/05/27 01:33:29;;;;;;;15.00;13.33;;;;;;;14.09;91.05;100420.13;5080774;28;20945;-61
2022/05/27 01:36:02;;;;;;;14.27;12.87;;;;;;;14.13;90.82;100427.72;5085491;28;20992;-61
2022/05/27 01:38:33;;;;;;;13.30;12.00;;;;;;;14.15;91.32;100414.13;5096868;28;20479;-61
2022/05/27 01:41:04;;;;;;;15.00;11.70;;;;;;;14.06;91.51;100421.31;5104741;28;20525;-61
2022/05/27 01:43:39;;;;;;;13.13;11.93;;;;;;;14.04;91.71;100415.22;5094503;28;20435;-61
2022/05/27 01:46:10;;;;;;;13.57;11.30;;;;;;;14.16;91.04;100418.47;5119641;28;20484;-61
2022/05/27 01:48:41;;;;;;;13.80;12.40;;;;;;;14.13;91.15;100416.97;5116024;28;20443;-61
2022/05/27 01:51:10;;;;;;;13.37;11.97;;;;;;;14.02;91.40;100409.16;5103853;28;20478;-61
2022/05/27 01:53:41;;;;;;;12.87;11.73;;;;;;;14.21;90.77;100409.94;5106365;28;20514;-61
2022/05/27 01:56:14;;;;;;;13.53;12.20;;;;;;;14.16;91.29;100412.28;5103445;28;20457;-61
2022/05/27 01:58:43;;;;;;;13.07;11.80;;;;;;;14.13;91.14;100408.91;5117069;28;20446;-61
2022/05/27 02:01:15;;;;;;;13.20;12.07;;;;;;;14.05;91.07;100414.22;5092398;28;20493;-61
2022/05/27 02:03:46;;;;;;;15.67;11.83;;;;;;;14.09;91.49;100410.22;5099305;28;20439;-61
2022/05/27 02:06:16;;;;;;;13.40;11.67;;;;;;;14.06;91.47;100409.69;5109976;28;20475;-61
2022/05/27 02:08:46;;;;;;;15.17;12.40;;;;;;;14.07;91.54;100412.22;5104109;28;20935;-61
2022/05/27 02:11:15;;;;;;;14.40;12.90;;;;;;;14.05;92.01;100408.03;5099409;28;20485;-61
2022/05/27 02:13:48;;;;;;;13.07;11.77;;;;;;;14.02;91.72;100411.84;5099539;28;20435;-61
2022/05/27 02:16:19;;;;;;;13.03;11.77;;;;;;;13.92;92.94;100414.66;5115632;28;20476;-61
2022/05/27 02:18:48;;;;;;;11.57;10.47;;;;;;;13.92;92.92;100425.44;5110491;28;20463;-62
2022/05/27 02:21:19;;;;;;;12.70;11.50;;;;;;;13.98;92.72;100431.16;5112530;28;20467;-62
2022/05/27 02:23:48;;;;;;;11.77;10.67;;;;;;;14.02;93.08;100476.38;5104861;28;20439;-63
2022/05/27 02:26:17;;;;;;;11.70;10.50;;;;;;;13.99;92.10;100478.53;5121933;28;20601;-63
2022/05/27 02:28:46;;;;;;;7.53;6.70;;;;;;;13.77;90.99;100474.53;5118074;28;20455;-61
2022/05/27 02:31:18;;;;;;;6.23;5.57;;;;;;;13.80;89.58;100482.25;5103477;28;20479;-62
2022/05/27 02:36:36;;;;;;;5.20;3.50;;;;;;;13.52;88.35;100468.94;5091526;28;20478;-60
2022/05/27 02:39:03;;;;;;;5.03;3.10;;;;;;;13.56;88.28;100462.25;5088571;28;20479;-61
2022/05/27 02:41:33;;;;;;;4.50;3.50;;;;;;;13.54;88.50;100462.41;5103528;28;20493;-61
2022/05/27 02:44:09;;;;;;;3.90;3.00;;;;;;;13.62;88.26;100453.56;5112025;28;20442;-60
2022/05/27 02:46:45;;;;;;;4.70;3.30;;;;;;;13.58;88.44;100449.50;5119222;28;20473;-61
2022/05/27 02:49:18;;;;;;;3.57;2.73;;;;;;;13.40;88.74;100460.25;5114630;28;20450;-60
2022/05/27 02:51:53;;;;;;;3.73;3.43;;;;;;;13.51;89.35;100459.19;5115020;27;20492;-60
2022/05/27 02:54:24;;;;;;;4.57;3.73;;;;;;;13.48;89.99;100457.66;5128776;27;20450;-61
2022/05/27 02:56:59;;;;;;;3.80;3.47;;;;;;;13.53;89.70;100447.28;5119642;28;20481;-61
2022/05/27 02:59:26;;;;;;;6.03;3.60;;;;;;;13.45;89.72;100455.25;5128253;27;20445;-61
2022/05/27 03:01:55;;;;;;;3.30;3.00;;;;;;;13.49;89.37;100448.59;5144709;27;20465;-61
2022/05/27 03:04:21;;;;;;;2.80;2.60;;;;;;;13.47;89.56;100465.84;5140975;27;20505;-61
2022/05/27 03:06:59;;;;;;;2.90;2.60;;;;;;;13.34;89.87;100466.25;5115398;27;20478;-61
2022/05/27 03:09:30;;;;;;;3.13;2.83;;;;;;;13.55;89.66;100463.25;5127226;27;20438;-61
2022/05/27 03:12:06;;;;;;;4.90;3.00;;;;;;;13.39;90.18;100468.50;5144435;27;20549;-62
2022/05/27 03:14:50;;;;;;;4.43;3.53;;;;;;;13.51;89.43;100459.19;5127070;27;20445;-62
2022/05/27 03:17:24;;;;;;;4.80;3.70;;;;;;;13.23;90.32;100464.63;5123582;27;20502;-62
2022/05/27 03:20:06;;;;;;;4.07;3.57;;;;;;;13.50;89.91;100471.75;5131072;27;20444;-62
2022/05/27 03:22:43;;;;;;;4.97;3.70;;;;;;;13.40;89.74;100468.31;5127091;27;20470;-61
2022/05/27 03:25:21;;;;;;;4.23;3.83;;;;;;;13.23;90.04;100467.31;5123221;27;20450;-61
2022/05/27 03:27:54;;;;;;;3.83;3.53;;;;;;;13.48;89.74;100465.72;5140506;27;20440;-61
2022/05/27 03:30:23;;;;;;;4.03;3.63;;;;;;;13.28;89.93;100470.38;5123270;28;20477;-61
2022/05/27 03:32:55;;;;;;;5.20;3.80;;;;;;;13.45;90.29;100468.69;5124804;27;20921;-61
2022/05/27 03:35:26;;;;;;;5.40;4.50;;;;;;;13.31;90.56;100474.56;5135636;27;20474;-61
2022/05/27 03:37:59;;;;;;;5.57;4.13;;;;;;;13.24;90.71;100470.81;5124912;27;20458;-61
2022/05/27 03:40:28;;;;;;;7.53;5.40;;;;;;;13.39;90.64;100474.69;5135763;27;20460;-61
2022/05/27 03:42:57;;;;;;;7.60;6.20;;;;;;;13.34;91.33;100468.94;5128909;27;20915;-60
2022/05/27 03:45:24;;;;;;;6.60;5.53;;;;;;;13.46;91.45;100470.38;5109862;27;20445;-61
2022/05/27 03:47:53;;;;;;;8.57;6.13;;;;;;;13.41;90.58;100461.13;5144789;27;20429;-61
2022/05/27 03:50:22;;;;;;;5.53;5.03;;;;;;;13.41;91.05;100471.84;5140611;27;20821;-61
2022/05/27 03:52:51;;;;;;;9.30;6.37;;;;;;;13.45;91.04;100467.84;5141862;27;20639;-61
2022/05/27 03:55:20;;;;;;;9.73;6.43;;;;;;;13.60;91.18;100470.84;5137540;27;20538;-61
2022/05/27 03:57:48;;;;;;;7.43;6.73;;;;;;;13.53;90.67;100467.94;5126582;27;20465;-60
2022/05/27 04:00:16;;;;;;;7.17;6.47;;;;;;;13.46;91.08;100465.03;5123232;27;20450;-60
2022/05/27 04:02:44;;;;;;;6.63;5.97;;;;;;;13.49;90.96;100480.84;5126931;27;20451;-60
2022/05/27 04:05:17;;;;;;;7.20;6.50;;;;;;;13.55;90.38;100476.69;5116740;28;20450;-61
2022/05/27 04:07:44;;;;;;;9.60;7.70;;;;;;;13.48;90.45;100476.44;5123510;27;20875;-61
2022/05/27 04:10:11;;;;;;;8.43;6.80;;;;;;;13.67;90.09;100466.53;5121841;27;20514;-61
2022/05/27 04:12:38;;;;;;;12.33;7.20;;;;;;;13.75;89.66;100478.19;5129115;27;20446;-60
2022/05/27 04:15:06;;;;;;;8.13;6.60;;;;;;;13.73;89.78;100480.22;5122855;28;21027;-61
2022/05/27 04:17:33;;;;;;;7.50;6.80;;;;;;;13.64;90.09;100483.81;5123087;28;20480;-61
2022/05/27 04:20:00;;;;;;;8.93;7.37;;;;;;;13.91;89.57;100479.34;5117441;28;20467;-61
2022/05/27 04:22:28;;;;;;;8.20;7.40;;;;;;;13.83;89.81;100479.25;5120849;27;20458;-61
2022/05/27 04:24:58;;;;;;;10.37;8.03;;;;;;;13.82;89.34;100472.19;5113901;28;20453;-61
2022/05/27 04:27:26;;;;;;;9.73;7.97;;;;;;;13.91;89.07;100485.53;5118889;27;20994;-61
2022/05/27 04:29:53;;;;;;;9.33;7.40;;;;;;;13.81;89.60;100483.94;5112002;28;20442;-61
2022/05/27 04:32:21;;;;;;;14.57;9.23;;;;;;;13.80;89.77;100476.88;5116670;27;20478;-61
2022/05/27 04:34:48;;;;;;;13.20;7.57;;;;;;;13.90;88.97;100474.94;5106335;28;20458;-62
2022/05/27 04:37:15;;;;;;;9.43;7.73;;;;;;;14.18;88.17;100475.63;5121697;27;20605;-61
2022/05/27 04:39:43;;;;;;;8.50;7.70;;;;;;;14.28;87.11;100467.47;5116513;28;20464;-62
2022/05/27 04:42:10;;;;;;;16.60;8.30;;;;;;;14.18;87.55;100469.41;5130305;27;20540;-61
2022/05/27 04:44:37;;;;;;;12.60;8.90;;;;;;;14.20;87.11;100470.97;5118567;28;20474;-61
2022/05/27 04:47:05;;;;;;;7.93;6.83;;;;;;;14.22;87.07;100471.63;5129832;27;20496;-62
2022/05/27 04:52:16;;;;;;;7.40;6.70;;;;;;;14.26;85.93;100473.00;5105485;28;20481;-62
2022/05/27 04:54:44;;;;;;;9.40;7.00;;;;;;;14.57;84.58;100468.97;5103611;28;20539;-62
2022/05/27 04:57:13;;;;;;;7.53;6.20;;;;;;;14.73;83.11;100471.75;5109062;28;20474;-62
2022/05/27 04:59:40;;;;;;;7.17;6.47;;;;;;;15.20;79.93;100478.44;5119438;27;21177;-62
2022/05/27 05:02:07;;;;;;;8.13;5.53;;;;;;;15.44;78.04;100483.03;5133974;27;20485;-62
2022/05/27 05:04:34;;;;;;;6.27;4.83;;;;;;;16.51;74.76;100491.91;5119645;28;20450;-62
2022/05/27 05:07:07;;;;;;;6.53;4.37;;;;;;;17.10;72.03;100485.28;5120676;27;20470;-61
2022/05/27 05:09:34;;;;;;;4.20;3.80;;;;;;;17.46;70.91;100484.69;5115364;28;20465;-62
2022/05/27 05:12:02;;;;;;;5.10;4.30;;;;;;;17.91;68.26;100491.13;5103016;27;20487;-62
2022/05/27 05:14:28;;;;;;;4.83;4.23;;;;;;;17.44;68.44;100484.03;5101266;28;20451;-62
2022/05/27 05:16:55;;;;;;;5.00;3.57;;;;;;;17.89;67.04;100479.66;5125086;27;20473;-62
2022/05/27 05:19:22;;;;;;;4.20;3.30;;;;;;;17.57;68.16;100481.59;5131083;27;20463;-62
2022/05/27 05:21:48;;;;;;;5.00;3.83;;;;;;;18.00;67.01;100473.81;5102282;27;20471;-62
2022/05/27 05:24:15;;;;;;;7.60;3.47;;;;;;;18.57;64.39;100466.09;5111293;28;20489;-61
2022/05/27 05:26:42;;;;;;;5.10;3.20;;;;;;;19.19;61.73;100472.94;5114111;27;20462;-62
2022/05/27 05:29:10;;;;;;;4.83;3.70;;;;;;;19.27;61.80;100467.38;5108349;28;20446;-62
2022/05/27 05:31:37;;;;;;;3.77;3.40;;;;;;;18.44;63.95;100462.16;5115550;28;20573;-62
2022/05/27 05:34:04;;;;;;;5.60;3.40;;;;;;;18.81;63.57;100473.06;5118256;28;20768;-62
2022/05/27 05:36:31;;;;;;;5.40;3.17;;;;;;;17.68;65.53;100469.50;5119296;28;20465;-62
2022/05/27 05:38:58;;;;;;;4.93;3.77;;;;;;;17.28;67.13;100468.78;5118350;28;20532;-62
2022/05/27 05:41:27;;;;;;;5.83;3.87;;;;;;;18.27;65.57;100466.09;5115045;28;21062;-62
2022/05/27 05:43:54;;;;;;;6.13;3.77;;;;;;;19.24;61.08;100472.34;5106645;28;20534;-62
2022/05/27 05:46:22;;;;;;;10.23;3.37;;;;;;;20.45;58.28;100477.75;5115091;28;20474;-62
2022/05/27 05:48:49;;;;;;;6.60;3.53;;;;;;;21.22;55.14;100475.84;5111652;28;20436;-62
2022/05/27 05:51:16;;;;;;;6.00;3.30;;;;;;;20.13;57.18;100488.19;5102838;28;20483;-62
2022/05/27 05:53:43;;;;;;;4.13;2.80;;;;;;;20.54;56.76;100486.59;5111567;28;20504;-62
2022/05/27 05:56:09;;;;;;;4.70;2.73;;;;;;;21.00;55.70;100486.81;5101431;28;20536;-63
2022/05/27 05:58:36;;;;;;;3.27;2.20;;;;;;;20.86;56.12;100483.22;5116978;28;20442;-64
2022/05/27 06:01:03;;;;;;;8.17;2.73;;;;;;;19.35;58.71;100498.94;5114681;28;20479;-62
2022/05/27 06:03:31;;;;;;;5.07;2.87;;;;;;;19.78;58.20;100500.88;5102768;28;20464;-62
2022/05/27 06:05:58;;;;;;;3.53;2.40;;;;;;;19.29;58.82;100508.69;5097627;28;20530;-62
2022/05/27 06:08:24;;;;;;;5.50;3.27;;;;;;;17.67;64.31;100506.53;5115468;28;20465;-62
2022/05/27 06:10:51;;;;;;;6.77;3.30;;;;;;;16.72;67.93;100504.00;5111337;28;21022;-62
2022/05/27 06:13:17;;;;;;;6.43;3.27;;;;;;;16.75;68.46;100500.91;5114945;28;20506;-62
2022/05/27 06:15:44;;;;;;;5.77;3.20;;;;;;;17.00;67.64;100496.28;5098174;28;20462;-62
2022/05/27 06:18:13;;;;;;;5.30;3.43;;;;;;;18.03;64.55;100497.78;5100843;28;20461;-62
2022/05/27 06:20:41;;;;;;;5.70;3.20;;;;;;;18.90;62.07;100501.75;5103947;28;20462;-62
2022/05/27 06:23:08;;;;;;;4.53;2.70;;;;;;;19.69;60.13;100498.25;5107364;28;20450;-62
2022/05/27 06:25:35;;;;;;;7.03;3.23;;;;;;;19.30;60.01;100512.22;5103841;28;20493;-62
2022/05/27 06:36:13;;;;;;;6.27;3.80;;;;;;;19.02;60.38;100512.13;5118612;28;20531;-62
2022/05/27 06:38:40;;;;;;;6.47;3.10;;;;;;;18.32;60.19;100506.97;5118345;28;20426;-62
2022/05/27 06:41:07;;;;;;;4.13;2.53;;;;;;;16.71;65.81;100505.00;5117739;28;20489;-61
2022/05/27 06:43:34;;;;;;;6.53;3.30;;;;;;;17.83;63.66;100508.25;5109891;28;20438;-61
2022/05/27 06:46:01;;;;;;;6.60;3.30;;;;;;;19.91;57.86;100511.81;5116559;28;20527;-62
2022/05/27 06:48:27;;;;;;;8.17;3.87;;;;;;;19.15;57.64;100510.41;5119102;28;20845;-62
2022/05/27 06:50:54;;;;;;;4.77;2.77;;;;;;;20.73;55.50;100512.22;5116846;28;20474;-62
2022/05/27 06:53:22;;;;;;;4.43;2.40;;;;;;;20.32;55.91;100519.25;5118112;28;20505;-62
2022/05/27 06:55:49;;;;;;;2.67;2.10;;;;;;;21.52;51.93;100519.03;5116911;28;20469;-62
2022/05/27 06:58:16;;;;;;;8.60;2.53;;;;;;;21.93;49.06;100515.31;5099679;28;20484;-62
2022/05/27 07:00:43;;;;;;;5.80;2.27;;;;;;;21.03;51.47;100510.06;5101223;28;20474;-62
2022/05/27 07:03:10;;;;;;;5.30;2.97;;;;;;;20.23;52.78;100524.00;5102904;28;20489;-62
2022/05/27 07:05:37;;;;;;;6.63;3.30;;;;;;;19.67;54.84;100515.75;5101215;28;21052;-62
2022/05/27 07:08:04;;;;;;;7.07;2.60;;;;;;;21.00;50.51;100511.28;5101874;28;20843;-62
2022/05/27 07:10:33;;;;;;;4.17;2.20;;;;;;;20.89;49.40;100522.75;5118447;28;20548;-63
2022/05/27 07:13:00;;;;;;;2.90;2.03;;;;;;;19.93;52.08;100521.47;5123035;28;20933;-61
2022/05/27 07:15:27;;;;;;;4.80;2.50;;;;;;;20.85;48.52;100519.59;5115895;28;20496;-62
2022/05/27 07:17:53;;;;;;;5.00;1.67;;;;;;;21.62;47.46;100523.00;5096184;28;20439;-63
2022/05/27 07:20:20;;;;;;;7.50;2.20;;;;;;;21.80;43.30;100516.13;5100963;28;20447;-60
2022/05/27 07:22:47;;;;;;;5.40;2.30;;;;;;;21.07;46.44;100516.75;5101346;28;20446;-62
2022/05/27 07:25:14;;;;;;;5.37;2.03;;;;;;;20.72;47.43;100502.41;5101272;28;20493;-63
2022/05/27 07:27:42;;;;;;;5.97;2.13;;;;;;;17.93;53.51;100502.59;5108671;28;20456;-61
2022/05/27 07:30:09;;;;;;;6.13;2.37;;;;;;;18.91;50.95;100513.44;5118067;28;20452;-62
2022/05/27 07:32:37;;;;;;;8.00;2.40;;;;;;;19.51;50.21;100509.56;5102169;28;20497;-62
2022/05/27 07:35:05;;;;;;;5.20;2.67;;;;;;;17.98;52.85;100499.34;5130116;27;20456;-62
2022/05/27 07:37:32;;;;;;;9.17;2.57;;;;;;;17.87;53.21;100514.16;5118947;27;20520;-63
2022/05/27 07:39:59;;;;;;;8.87;2.33;;;;;;;17.42;56.63;100510.41;5101740;28;20975;-61
2022/05/27 07:42:26;;;;;;;11.57;2.60;;;;;;;16.91;59.32;100514.41;5101042;28;20506;-61
2022/05/27 07:44:54;;;;;;;6.43;2.77;;;;;;;16.69;60.38;100510.56;5107004;28;20450;-61
2022/05/27 07:47:21;;;;;;;6.63;2.30;;;;;;;17.07;58.46;100518.03;5118664;28;20500;-61
2022/05/27 07:49:48;;;;;;;4.13;1.97;;;;;;;18.10;55.50;100519.53;5121357;28;20450;-61
2022/05/27 07:52:15;;;;;;;7.00;3.00;;;;;;;18.60;53.08;100514.47;5101168;28;20491;-61
2022/05/27 07:54:41;;;;;;;5.13;2.10;;;;;;;18.20;51.88;100512.00;5101317;28;20447;-61
2022/05/27 07:57:23;;;;;;;7.10;2.00;;;;;;;19.23;48.74;100516.75;5099568;28;20479;-61
2022/05/27 07:59:50;;;;;;;9.37;2.30;;;;;;;21.77;42.84;100513.84;5114918;28;20456;-62
2022/05/27 08:02:18;;;;;;;8.10;2.43;;;;;;;19.77;46.84;100520.88;5100643;28;20487;-62
2022/05/27 08:04:45;;;;;;;4.43;1.73;;;;;;;19.28;48.94;100514.31;5100245;28;20539;-62
2022/05/27 08:07:11;;;;;;;4.27;2.70;;;;;;;18.75;50.73;100512.59;5100013;28;20534;-63
2022/05/27 08:09:38;;;;;;;6.13;2.37;;;;;;;17.90;52.76;100518.34;5100041;28;20550;-61
2022/05/27 08:12:06;;;;;;;3.50;2.00;;;;;;;20.08;48.29;100512.38;5096047;28;20506;-61
2022/05/27 08:14:33;;;;;;;4.80;2.20;;;;;;;20.17;46.59;100532.06;5099677;28;20508;-62
2022/05/27 08:16:59;;;;;;;6.17;1.90;;;;;;;20.84;45.56;100512.47;5100277;28;20479;-61
2022/05/27 08:19:28;;;;;;;6.53;2.20;;;;;;;22.79;40.46;100513.53;5099755;28;20476;-62
2022/05/27 08:21:54;;;;;;;5.43;1.80;;;;;;;22.48;39.99;100502.31;5098770;28;20483;-61
2022/05/27 08:24:21;;;;;;;5.00;2.13;;;;;;;22.47;40.70;100516.13;5112907;28;20463;-62
2022/05/27 08:26:48;;;;;;;6.10;2.20;;;;;;;22.48;39.84;100507.75;5080642;28;20468;-61
2022/05/27 08:29:15;;;;;;;8.47;2.17;;;;;;;21.42;40.47;100519.38;5091843;28;20447;-62
2022/05/27 08:31:42;;;;;;;7.57;2.80;;;;;;;20.06;42.48;100514.47;5093614;28;20494;-62
2022/05/27 08:39:42;;;;;;;7.60;1.83;;;;;;;22.13;39.81;100516.16;5100179;28;20505;-62
2022/05/27 08:42:19;;;;;;;7.50;2.50;;;;;;;22.41;37.60;100516.97;5099900;28;20562;-62
2022/05/27 08:44:49;;;;;;;11.13;2.33;;;;;;;20.51;39.77;100510.38;5099109;28;20480;-62
2022/05/27 08:47:24;;;;;;;4.73;2.10;;;;;;;20.10;40.57;100532.88;5098230;28;20482;-62
2022/05/27 08:49:53;;;;;;;3.90;1.90;;;;;;;21.80;39.12;100499.78;5099703;28;20454;-62
2022/05/27 08:52:25;;;;;;;4.03;1.63;;;;;;;19.59;41.77;100516.72;5104808;28;20485;-62
2022/05/27 08:54:55;;;;;;;5.90;2.27;;;;;;;20.72;39.71;100507.84;5109904;28;20451;-62
2022/05/27 09:00:14;;;;;;;3.97;1.70;;;;;;;19.70;39.40;100515.34;5095289;28;20441;-62
2022/05/27 09:02:45;;;;;;;4.00;1.73;;;;;;;18.80;41.04;100514.72;5104217;28;20527;-62
2022/05/27 09:05:15;;;;;;;6.60;2.10;;;;;;;18.19;44.03;100512.16;5098756;28;20546;-62
2022/05/27 09:07:49;;;;;;;6.80;2.03;;;;;;;20.80;39.40;100518.53;5099603;28;20424;-62
2022/05/27 09:10:19;;;;;;;4.90;1.83;;;;;;;20.67;37.04;100532.88;5099343;28;20446;-62
2022/05/27 09:12:49;;;;;;;3.63;2.00;;;;;;;19.64;38.89;100529.72;5099272;28;20912;-62
2022/05/27 09:15:23;;;;;;;4.00;1.77;;;;;;;21.77;35.39;100520.13;5098311;28;20580;-63
2022/05/27 09:17:56;;;;;;;6.37;2.20;;;;;;;22.19;32.95;100509.84;5100058;28;20454;-62
2022/05/27 09:20:38;;;;;;;4.07;1.50;;;;;;;21.76;33.80;100534.75;5097933;28;20711;-62
2022/05/27 09:23:14;;;;;;;4.73;2.00;;;;;;;21.94;33.43;100536.88;5093664;28;20441;-62
2022/05/27 09:25:50;;;;;;;4.67;1.97;;;;;;;22.18;34.93;100537.28;5119483;28;20495;-62
2022/05/27 09:28:21;;;;;;;6.37;2.00;;;;;;;19.82;36.79;100538.25;5120413;28;20922;-62
2022/05/27 09:30:50;;;;;;;5.63;2.13;;;;;;;19.93;37.49;100532.31;5108777;28;20467;-63
2022/05/27 09:33:19;;;;;;;9.60;2.23;;;;;;;21.94;34.79;100536.88;5098538;28;20478;-62
2022/05/27 09:35:49;;;;;;;5.77;2.00;;;;;;;21.92;34.75;100538.97;5098154;28;21058;-63
2022/05/27 09:38:21;;;;;;;7.00;1.90;;;;;;;23.19;32.20;100527.88;5119784;28;20434;-63
2022/05/27 09:40:51;;;;;;;5.70;2.07;;;;;;;23.68;32.36;100540.00;5101869;28;20481;-63
2022/05/27 09:43:23;;;;;;;3.63;1.63;;;;;;;22.72;34.00;100529.91;5097592;28;20439;-62
2022/05/27 09:45:51;;;;;;;6.90;1.90;;;;;;;21.33;36.39;100524.16;5098564;28;20475;-63
2022/05/27 09:48:18;;;;;;;11.10;2.33;;;;;;;20.76;38.10;100518.09;5099341;28;20439;-62
2022/05/27 09:50:47;;;;;;;9.13;2.43;;;;;;;19.98;39.34;100526.31;5097517;28;20524;-62
2022/05/27 09:53:18;;;;;;;8.33;2.13;;;;;;;22.31;35.83;100522.88;5111003;28;20489;-62
2022/05/27 09:55:50;;;;;;;5.83;2.00;;;;;;;23.04;35.07;100525.41;5120326;28;20486;-62
2022/05/27 09:58:24;;;;;;;10.27;2.50;;;;;;;21.54;37.33;100523.19;5120807;28;20541;-62
2022/05/27 10:00:53;;;;;;;7.40;2.00;;;;;;;24.34;32.94;100515.97;5117314;28;20504;-63
2022/05/27 10:03:23;;;;;;;4.17;2.00;;;;;;;21.95;34.80;100507.78;5120361;28;20473;-62
2022/05/27 10:05:51;;;;;;;7.03;2.23;;;;;;;20.12;37.61;100510.97;5119170;28;20474;-63
2022/05/27 10:08:29;;;;;;;6.43;2.00;;;;;;;19.48;38.47;100503.69;5121279;28;20438;-62
2022/05/27 10:11:16;;;;;;;7.23;2.20;;;;;;;19.13;40.12;100530.59;5119527;28;20473;-62
2022/05/27 10:13:44;;;;;;;4.77;2.50;;;;;;;20.16;38.11;100531.25;5119765;28;20473;-62
2022/05/27 10:16:12;;;;;;;5.27;2.17;;;;;;;21.06;35.66;100525.97;5119399;28;20478;-62
2022/05/27 10:18:40;;;;;;;6.57;2.20;;;;;;;21.13;34.20;100528.72;5119627;28;20434;-64
2022/05/27 10:21:12;;;;;;;4.90;1.70;;;;;;;22.10;34.54;100530.19;5103589;28;20479;-62
2022/05/27 10:23:43;;;;;;;8.50;2.03;;;;;;;21.42;35.00;100532.97;5100560;28;20480;-63
2022/05/27 10:26:25;;;;;;;7.97;2.00;;;;;;;22.54;31.13;100530.59;5113655;28;20499;-62
2022/05/27 10:29:04;;;;;;;5.43;1.73;;;;;;;20.51;33.88;100529.41;5120715;28;20438;-63
2022/05/27 10:31:31;;;;;;;8.03;2.07;;;;;;;21.45;32.19;100541.56;5117973;28;20470;-62
2022/05/27 10:34:00;;;;;;;7.40;2.00;;;;;;;20.69;33.92;100539.81;5123878;28;20568;-63
2022/05/27 10:36:51;;;;;;;5.53;2.30;;;;;;;22.73;32.29;100537.88;5122950;28;20474;-63
2022/05/27 10:39:27;;;;;;;5.57;1.93;;;;;;;21.11;33.44;100531.66;5124344;28;20453;-63
2022/05/27 10:42:07;;;;;;;8.87;2.27;;;;;;;21.37;34.16;100520.00;5124069;28;20507;-63
2022/05/27 10:44:43;;;;;;;7.77;2.33;;;;;;;21.49;33.28;100516.72;5123319;28;20744;-63
2022/05/27 10:47:17;;;;;;;6.03;2.30;;;;;;;21.94;31.62;100533.31;5123850;28;20503;-63
2022/05/27 10:50:03;;;;;;;6.03;1.90;;;;;;;23.31;27.85;100539.78;5123839;28;20453;-63
2022/05/27 10:52:42;;;;;;;6.70;2.07;;;;;;;22.29;29.56;100541.28;5130353;27;20484;-63
2022/05/27 10:55:16;;;;;;;7.07;2.67;;;;;;;21.26;31.49;100536.91;5144412;27;20480;-62
2022/05/27 11:03:34;;;;;;;6.10;1.77;;;;;;;22.41;29.93;100541.50;5123794;28;20847;-65
2022/05/27 11:06:16;;;;;;;8.67;2.40;;;;;;;21.60;33.25;100537.88;5122468;28;20465;-62
2022/05/27 11:08:50;;;;;;;6.50;2.00;;;;;;;22.86;29.78;100522.53;5122315;28;20468;-62
2022/05/27 11:11:23;;;;;;;6.70;2.23;;;;;;;22.19;30.48;100539.81;5102831;28;20478;-62
2022/05/27 11:16:48;;;;;;;5.00;2.13;;;;;;;21.85;31.60;100559.06;5143981;27;20475;-62
2022/05/27 11:19:44;;;;;;;8.03;2.17;;;;;;;21.24;31.71;100552.59;5103327;28;20454;-62
2022/05/27 11:22:18;;;;;;;5.20;2.20;;;;;;;21.24;31.93;100548.00;5102982;28;20528;-62
2022/05/27 11:25:05;;;;;;;4.87;2.10;;;;;;;21.00;31.36;100556.66;5103197;28;20824;-62
2022/05/27 11:27:45;;;;;;;6.57;2.40;;;;;;;20.96;32.12;100542.66;5103132;28;20982;-62
2022/05/27 11:30:26;;;;;;;9.67;2.30;;;;;;;20.99;34.02;100563.16;5101840;28;20533;-62
2022/05/27 11:33:08;;;;;;;9.60;2.37;;;;;;;20.08;33.65;100561.25;5103196;28;20490;-62
2022/05/27 11:35:43;;;;;;;6.47;2.60;;;;;;;20.13;33.91;100551.47;5101870;28;20486;-62
2022/05/27 11:38:32;;;;;;;11.03;2.90;;;;;;;21.77;33.14;100562.84;5115564;28;20423;-63
2022/05/27 11:41:07;;;;;;;8.60;2.17;;;;;;;21.04;30.91;100556.06;5123045;28;20488;-63
2022/05/27 11:43:43;;;;;;;7.40;2.20;;;;;;;20.30;32.31;100560.19;5122311;28;20430;-63
2022/05/27 11:46:22;;;;;;;7.80;2.13;;;;;;;21.91;32.55;100550.09;5116162;28;21182;-63
2022/05/27 11:48:53;;;;;;;7.97;2.37;;;;;;;22.04;31.08;100557.41;5123957;28;20433;-63
2022/05/27 11:51:29;;;;;;;7.93;2.50;;;;;;;21.75;33.37;100560.31;5121637;28;20470;-63
2022/05/27 11:54:11;;;;;;;5.30;1.87;;;;;;;21.28;31.97;100556.56;5105305;28;20521;-62
2022/05/27 11:56:47;;;;;;;7.03;2.27;;;;;;;20.28;33.96;100561.41;5101614;28;20471;-61
2022/05/27 11:59:20;;;;;;;8.20;2.13;;;;;;;20.20;33.09;100550.69;5103252;28;20463;-61
2022/05/27 12:01:50;;;;;;;7.17;2.30;;;;;;;20.53;34.07;100553.66;5102100;28;20532;-64
2022/05/27 12:04:26;;;;;;;7.80;2.00;;;;;;;20.32;35.70;100546.41;5101301;28;20989;-62
2022/05/27 12:06:56;;;;;;;4.53;2.00;;;;;;;20.20;35.29;100542.56;5116654;28;20478;-62
2022/05/27 12:09:27;;;;;;;9.57;2.47;;;;;;;19.86;34.51;100558.56;5123391;28;20656;-62
2022/05/27 12:11:56;;;;;;;6.27;2.10;;;;;;;19.88;34.24;100545.63;5121404;28;20474;-62